createdAt,value
2022-09-07T00:00:49.829Z,646.65
2022-09-07T00:03:19.363Z,506.52
2022-09-07T00:05:49.517Z,591.53
2022-09-07T00:08:19.392Z,648.58
2022-09-07T00:10:53.810Z,662.97
2022-09-07T00:13:21.737Z,672.53
2022-09-07T00:15:49.898Z,681.08
2022-09-07T00:18:19.337Z,674.42
2022-09-07T00:20:47.571Z,675.85
2022-09-07T00:23:15.488Z,675.25
2022-09-07T00:25:43.438Z,679.67
2022-09-07T00:28:11.309Z,683.88
2022-09-07T00:30:42.370Z,678.60
2022-09-07T00:33:10.907Z,673.75
2022-09-07T00:35:43.875Z,671.25
2022-09-07T00:38:11.789Z,661.53
2022-09-07T00:40:39.752Z,666.42
2022-09-07T00:43:08.249Z,665.65
2022-09-07T00:45:36.231Z,656.75
2022-09-07T00:48:06.742Z,666.20
2022-09-07T00:50:40.832Z,657.03
2022-09-07T00:53:14.809Z,663.03
2022-09-07T00:55:44.760Z,651.25
2022-09-07T00:58:13.108Z,650.33
2022-09-07T01:00:42.421Z,652.17
2022-09-07T01:03:11.812Z,659.45
2022-09-07T01:05:43.313Z,649.67
2022-09-07T01:08:13.390Z,649.03
2022-09-07T01:10:41.729Z,648.03
2022-09-07T01:13:09.725Z,658.13
2022-09-07T01:15:45.133Z,634.50
2022-09-07T01:18:21.732Z,650.17
2022-09-07T01:21:01.952Z,646.63
2022-09-07T01:24:03.672Z,649.83
2022-09-07T01:27:09.888Z,645.40
2022-09-07T01:29:43.233Z,642.83
2022-09-07T01:32:14.842Z,629.53
2022-09-07T01:34:44.497Z,630.28
2022-09-07T01:37:18.194Z,633.47
2022-09-07T01:39:53.277Z,645.22
2022-09-07T01:42:23.022Z,656.35
2022-09-07T01:44:56.681Z,636.42
2022-09-07T01:47:30.173Z,658.47
2022-09-07T01:50:04.850Z,643.88
2022-09-07T01:52:36.929Z,659.13
2022-09-07T01:55:08.599Z,653.35
2022-09-07T01:57:42.202Z,660.58
2022-09-07T02:00:14.397Z,654.28
2022-09-07T02:02:45.874Z,661.00
2022-09-07T02:05:15.745Z,653.10
2022-09-07T02:07:46.966Z,651.58
2022-09-07T02:10:17.980Z,668.88
2022-09-07T02:12:49.431Z,665.10
2022-09-07T02:15:20.399Z,662.88
2022-09-07T02:17:51.459Z,675.17
2022-09-07T02:20:21.512Z,683.05
2022-09-07T02:22:51.564Z,674.10
2022-09-07T02:25:23.420Z,659.72
2022-09-07T02:27:53.057Z,658.35
2022-09-07T02:30:22.431Z,662.88
2022-09-07T02:32:50.593Z,659.33
2022-09-07T02:35:19.084Z,670.72
2022-09-07T02:37:47.086Z,661.72
2022-09-07T02:40:15.854Z,657.38
2022-09-07T02:42:44.703Z,660.83
2022-09-07T02:45:14.302Z,662.30
2022-09-07T02:47:54.580Z,660.30
2022-09-07T02:50:33.202Z,653.15
2022-09-07T02:53:14.722Z,681.45
2022-09-07T02:55:47.590Z,658.47
2022-09-07T02:58:23.285Z,686.25
2022-09-07T03:00:56.737Z,662.90
2022-09-07T03:03:32.155Z,660.05
2022-09-07T03:06:02.872Z,663.10
2022-09-07T03:08:33.379Z,656.70
2022-09-07T03:11:01.901Z,665.63
2022-09-07T03:13:31.042Z,662.90
2022-09-07T03:15:59.141Z,642.65
2022-09-07T03:18:29.216Z,648.25
2022-09-07T03:20:57.302Z,661.13
2022-09-07T03:23:28.298Z,647.47
2022-09-07T03:25:56.662Z,661.80
2022-09-07T03:28:24.636Z,665.10
2022-09-07T03:30:52.713Z,678.25
2022-09-07T03:33:20.653Z,676.75
2022-09-07T03:35:58.733Z,676.10
2022-09-07T03:38:26.714Z,662.13
2022-09-07T03:41:06.191Z,667.05
2022-09-07T03:43:35.088Z,672.10
2022-09-07T03:46:05.420Z,671.33
2022-09-07T03:48:34.445Z,668.53
2022-09-07T03:51:05.293Z,671.67
2022-09-07T03:53:34.156Z,677.72
2022-09-07T03:56:03.531Z,668.45
2022-09-07T03:58:32.749Z,677.30
2022-09-07T04:01:01.850Z,669.55
2022-09-07T04:03:30.208Z,673.22
2022-09-07T04:05:59.797Z,670.28
2022-09-07T04:08:30.462Z,674.30
2022-09-07T04:10:58.748Z,677.30
2022-09-07T04:13:27.285Z,673.22
2022-09-07T04:15:55.495Z,682.70
2022-09-07T04:18:24.348Z,683.35
2022-09-07T04:20:53.599Z,678.55
2022-09-07T04:23:21.875Z,688.78
2022-09-07T04:25:52.962Z,674.35
2022-09-07T04:28:21.741Z,693.72
2022-09-07T04:30:49.681Z,681.88
2022-09-07T04:33:17.729Z,676.63
2022-09-07T04:35:45.696Z,677.65
2022-09-07T04:38:15.398Z,672.70
2022-09-07T04:40:43.369Z,672.60
2022-09-07T04:43:14.093Z,676.83
2022-09-07T04:45:42.079Z,673.92
2022-09-07T04:48:10.038Z,672.78
2022-09-07T04:50:38.034Z,719.85
2022-09-07T04:53:06.010Z,645.70
2022-09-07T04:55:33.952Z,653.92
2022-09-07T04:58:02.188Z,644.85
2022-09-07T05:00:32.134Z,660.92
2022-09-07T05:03:00.152Z,670.30
2022-09-07T05:05:28.399Z,651.35
2022-09-07T05:07:56.624Z,673.00
2022-09-07T05:10:24.811Z,656.88
2022-09-07T05:12:52.814Z,651.42
2022-09-07T05:15:20.874Z,619.08
2022-09-07T05:17:51.085Z,629.53
2022-09-07T05:20:20.421Z,665.60
2022-09-07T05:22:48.680Z,668.38
2022-09-07T05:25:16.665Z,668.97
2022-09-07T05:27:44.812Z,676.78
2022-09-07T05:33:05.190Z,667.22
2022-09-07T05:35:33.149Z,676.08
2022-09-07T05:38:01.133Z,672.20
2022-09-07T05:40:35.131Z,669.17
2022-09-07T05:43:05.573Z,664.28
2022-09-07T05:45:33.534Z,658.05
2022-09-07T05:48:01.452Z,674.72
2022-09-07T05:50:30.812Z,675.30
2022-09-07T05:52:59.967Z,672.67
2022-09-07T05:55:30.880Z,667.63
2022-09-07T05:57:59.131Z,674.30
2022-09-07T06:00:27.317Z,672.65
2022-09-07T06:02:55.417Z,669.35
2022-09-07T06:05:23.662Z,668.40
2022-09-07T06:07:54.163Z,663.50
2022-09-07T06:13:09.989Z,683.53
2022-09-07T06:15:37.933Z,666.40
2022-09-07T06:18:05.938Z,670.00
2022-09-07T06:20:33.956Z,669.20
2022-09-07T06:23:03.319Z,679.47
2022-09-07T06:25:31.625Z,664.78
2022-09-07T06:27:59.710Z,667.67
2022-09-07T06:30:28.233Z,670.60
2022-09-07T06:32:56.304Z,670.25
2022-09-07T06:35:24.297Z,665.70
2022-09-07T06:37:52.500Z,668.50
2022-09-07T06:40:22.888Z,669.90
2022-09-07T06:42:50.949Z,669.47
2022-09-07T06:45:18.978Z,672.15
2022-09-07T06:47:47.252Z,666.30
2022-09-07T06:50:16.669Z,671.92
2022-09-07T06:55:33.961Z,667.10
2022-09-07T06:58:01.876Z,664.15
2022-09-07T07:00:29.861Z,674.33
2022-09-07T07:02:57.836Z,673.83
2022-09-07T07:05:25.921Z,674.47
2022-09-07T07:07:54.165Z,664.03
2022-09-07T07:10:25.102Z,671.00
2022-09-07T07:12:58.230Z,674.25
2022-09-07T07:15:28.105Z,674.67
2022-09-07T07:18:02.632Z,673.65
2022-09-07T07:20:42.807Z,686.05
2022-09-07T07:23:12.626Z,691.08
2022-09-07T07:25:40.569Z,686.58
2022-09-07T07:30:59.049Z,680.33
2022-09-07T07:33:30.924Z,679.47
2022-09-07T07:36:09.633Z,675.50
2022-09-07T07:44:19.533Z,686.88
2022-09-07T07:46:49.358Z,692.67
2022-09-07T07:49:18.191Z,694.38
2022-09-07T07:54:36.948Z,686.60
2022-09-07T07:57:05.978Z,693.63
2022-09-07T07:59:35.463Z,681.42
2022-09-07T08:02:05.368Z,686.58
2022-09-07T08:04:33.962Z,684.67
2022-09-07T08:07:05.582Z,691.58
2022-09-07T08:09:38.062Z,656.95
2022-09-07T08:12:06.477Z,653.17
2022-09-07T08:14:41.133Z,666.92
2022-09-07T08:17:10.435Z,669.53
2022-09-07T08:19:38.530Z,668.03
2022-09-07T08:22:06.483Z,665.00
2022-09-07T08:24:34.842Z,664.40
2022-09-07T08:27:03.615Z,674.88
2022-09-07T08:29:35.165Z,683.50
2022-09-07T08:32:06.691Z,670.17
2022-09-07T08:34:37.164Z,673.05
2022-09-07T08:37:05.439Z,681.75
2022-09-07T08:39:33.653Z,677.78
2022-09-07T08:42:21.046Z,680.35
2022-09-07T08:44:51.976Z,680.28
2022-09-07T08:47:31.759Z,687.53
2022-09-07T08:50:05.269Z,686.88
2022-09-07T08:52:44.144Z,685.83
2022-09-07T08:55:17.096Z,682.45
2022-09-07T08:57:48.931Z,673.92
2022-09-07T09:00:19.143Z,681.63
2022-09-07T09:05:43.350Z,683.78
2022-09-07T09:08:37.590Z,681.67
2022-09-07T09:11:10.174Z,687.90
2022-09-07T09:13:48.154Z,684.38
2022-09-07T09:16:19.824Z,691.40
2022-09-07T09:19:00.916Z,685.08
2022-09-07T09:21:29.165Z,678.25
2022-09-07T09:24:01.972Z,691.97
2022-09-07T09:26:32.209Z,684.65
2022-09-07T09:29:00.169Z,685.85
2022-09-07T09:31:33.796Z,683.08
2022-09-07T09:34:11.796Z,697.80
2022-09-07T09:36:45.793Z,678.67
2022-09-07T09:39:31.987Z,684.00
2022-09-07T09:42:02.925Z,684.03
2022-09-07T09:44:34.516Z,682.75
2022-09-07T09:49:55.457Z,683.53
2022-09-07T09:52:29.925Z,727.95
2022-09-07T09:55:23.605Z,698.63
2022-09-07T10:03:55.942Z,694.42
2022-09-07T10:06:27.785Z,670.17
2022-09-07T10:08:58.685Z,681.65
2022-09-07T10:14:37.772Z,674.75
2022-09-07T10:17:15.771Z,682.33
2022-09-07T10:19:50.423Z,687.90
2022-09-07T10:22:26.431Z,687.53
2022-09-07T10:24:54.423Z,686.85
2022-09-07T10:27:31.046Z,681.83
2022-09-07T10:29:59.611Z,692.75
2022-09-07T10:32:41.862Z,697.63
2022-09-07T10:35:16.269Z,682.45
2022-09-07T10:37:57.072Z,694.42
2022-09-07T10:40:35.234Z,677.88
2022-09-07T10:43:23.797Z,683.15
2022-09-07T10:46:56.366Z,694.33
2022-09-07T10:49:15.511Z,696.38
2022-09-07T10:51:59.280Z,699.72
2022-09-07T10:54:36.919Z,693.55
2022-09-07T10:57:10.750Z,698.65
2022-09-07T11:03:24.986Z,690.80
2022-09-07T11:05:38.478Z,699.35
2022-09-07T11:08:16.557Z,692.20
2022-09-07T11:10:49.845Z,698.90
2022-09-07T11:13:20.392Z,703.38
2022-09-07T11:15:51.595Z,704.15
2022-09-07T11:18:25.116Z,693.28
2022-09-07T11:20:56.221Z,703.08
2022-09-07T11:23:30.101Z,698.78
2022-09-07T11:26:03.533Z,685.58
2022-09-07T11:28:44.167Z,699.08
2022-09-07T11:31:18.834Z,694.25
2022-09-07T11:36:50.150Z,685.78
2022-09-07T11:39:21.693Z,688.80
2022-09-07T11:41:58.059Z,695.28
2022-09-07T11:44:27.664Z,699.08
2022-09-07T11:47:00.294Z,695.63
2022-09-07T11:49:28.746Z,685.58
2022-09-07T11:51:58.209Z,685.00
2022-09-07T11:54:42.988Z,697.60
2022-09-07T11:57:41.872Z,691.30
2022-09-07T12:00:12.892Z,698.47
2022-09-07T12:03:04.939Z,696.28
2022-09-07T12:05:52.516Z,690.83
2022-09-07T12:08:27.511Z,699.45
2022-09-07T12:11:04.521Z,702.58
2022-09-07T12:13:44.407Z,702.08
2022-09-07T12:16:19.041Z,698.42
2022-09-07T12:19:13.759Z,705.92
2022-09-07T12:21:44.401Z,705.38
2022-09-07T12:24:34.706Z,700.25
2022-09-07T12:27:03.172Z,685.70
2022-09-07T12:29:33.441Z,704.70
2022-09-07T12:34:54.723Z,709.55
2022-09-07T12:37:52.528Z,702.88
2022-09-07T12:40:49.035Z,699.08
2022-09-07T12:43:36.613Z,711.28
2022-09-07T12:46:19.691Z,698.47
2022-09-07T12:48:54.809Z,709.58
2022-09-07T12:54:25.310Z,700.67
2022-09-07T13:00:01.550Z,697.42
2022-09-07T13:02:46.517Z,706.58
2022-09-07T13:05:20.308Z,700.30
2022-09-07T13:08:08.991Z,694.33
2022-09-07T13:10:38.726Z,702.25
2022-09-07T13:13:08.064Z,700.05
2022-09-07T13:15:41.375Z,690.75
2022-09-07T13:18:14.013Z,697.15
2022-09-07T13:20:41.961Z,710.55
2022-09-07T13:23:24.882Z,697.47
2022-09-07T13:25:56.041Z,686.50
2022-09-07T13:28:28.744Z,673.58
2022-09-07T13:31:42.096Z,680.17
2022-09-07T13:34:39.863Z,684.65
2022-09-07T13:37:16.292Z,663.42
2022-09-07T13:39:47.496Z,641.45
2022-09-07T13:42:21.075Z,632.38
2022-09-07T13:44:57.089Z,644.83
2022-09-07T13:47:38.597Z,647.75
2022-09-07T13:50:25.155Z,665.92
2022-09-07T13:53:08.852Z,665.53
2022-09-07T13:55:42.409Z,689.00
2022-09-07T13:58:17.143Z,686.70
2022-09-07T14:00:55.716Z,676.05
2022-09-07T14:03:25.642Z,679.60
2022-09-07T14:06:15.737Z,677.05
2022-09-07T14:08:48.460Z,687.70
2022-09-07T14:11:20.621Z,696.05
2022-09-07T14:14:07.348Z,706.75
2022-09-07T14:16:35.586Z,693.22
2022-09-07T14:19:09.950Z,706.47
2022-09-07T14:21:39.329Z,696.38
2022-09-07T14:24:09.228Z,697.70
2022-09-07T14:26:37.092Z,698.97
2022-09-07T14:29:05.092Z,692.88
2022-09-07T14:31:33.072Z,706.20
2022-09-07T14:34:02.204Z,709.03
2022-09-07T14:36:48.496Z,702.97
2022-09-07T14:39:19.629Z,708.83
2022-09-07T14:41:48.163Z,702.33
2022-09-07T14:44:33.766Z,698.17
2022-09-07T14:47:05.721Z,698.58
2022-09-07T14:49:33.889Z,697.20
2022-09-07T14:52:02.142Z,688.72
2022-09-07T14:54:32.946Z,708.70
2022-09-07T14:57:06.817Z,698.83
2022-09-07T14:59:43.302Z,690.15
2022-09-07T15:02:33.307Z,680.67
2022-09-07T15:05:25.781Z,706.40
2022-09-07T15:07:56.224Z,701.30
2022-09-07T15:10:42.113Z,706.08
2022-09-07T15:13:30.258Z,713.75
2022-09-07T15:16:01.316Z,700.53
2022-09-07T15:18:57.677Z,713.92
2022-09-07T15:21:28.773Z,698.92
2022-09-07T15:23:58.717Z,691.85
2022-09-07T15:29:20.697Z,700.47
2022-09-07T15:32:01.149Z,702.85
2022-09-07T15:34:32.465Z,735.72
2022-09-07T15:37:01.722Z,675.22
2022-09-07T15:39:31.123Z,687.33
2022-09-07T15:42:59.087Z,693.20
2022-09-07T15:44:50.024Z,702.22
2022-09-07T15:50:08.113Z,698.90
2022-09-07T15:52:36.163Z,701.50
2022-09-07T15:55:04.105Z,694.40
2022-09-07T15:57:51.172Z,700.97
2022-09-07T16:00:20.961Z,698.22
2022-09-07T16:03:05.759Z,707.72
2022-09-07T16:05:34.890Z,705.65
2022-09-07T16:11:04.479Z,687.97
2022-09-07T16:13:34.604Z,687.28
2022-09-07T16:16:02.418Z,687.97
2022-09-07T16:18:31.837Z,686.92
2022-09-07T16:21:06.714Z,687.10
2022-09-07T16:23:34.671Z,684.42
2022-09-07T16:26:05.422Z,678.90
2022-09-07T16:28:35.306Z,681.05
2022-09-07T16:31:06.824Z,683.50
2022-09-07T16:33:37.001Z,684.50
2022-09-07T16:36:07.226Z,695.78
2022-09-07T16:38:44.462Z,690.78
2022-09-07T16:41:14.727Z,695.42
2022-09-07T16:43:44.036Z,688.53
2022-09-07T16:46:13.691Z,688.38
2022-09-07T16:48:42.175Z,698.15
2022-09-07T16:51:11.685Z,691.78
2022-09-07T16:53:39.825Z,680.50
2022-09-07T16:56:09.312Z,684.05
2022-09-07T16:58:39.032Z,684.58
2022-09-07T17:01:10.083Z,681.72
2022-09-07T17:03:38.647Z,686.47
2022-09-07T17:06:08.094Z,691.70
2022-09-07T17:08:37.049Z,696.00
2022-09-07T17:11:06.613Z,682.58
2022-09-07T17:13:35.973Z,691.95
2022-09-07T17:16:05.507Z,682.55
2022-09-07T17:21:23.389Z,686.13
2022-09-07T17:23:55.542Z,693.28
2022-09-07T17:26:27.327Z,690.72
2022-09-07T17:28:59.786Z,688.92
2022-09-07T17:34:19.572Z,687.60
2022-09-07T17:36:47.635Z,694.97
2022-09-07T17:39:19.499Z,688.33
2022-09-07T17:41:49.593Z,689.38
2022-09-07T17:44:17.689Z,694.08
2022-09-07T17:46:45.578Z,690.65
2022-09-07T17:49:16.353Z,693.97
2022-09-07T17:51:47.922Z,685.00
2022-09-07T17:54:27.508Z,683.78
2022-09-07T17:56:55.438Z,688.22
2022-09-07T18:02:13.841Z,685.85
2022-09-07T18:04:42.742Z,682.25
2022-09-07T18:07:12.278Z,682.53
2022-09-07T18:09:40.509Z,684.40
2022-09-07T18:12:10.486Z,685.03
2022-09-07T18:14:38.450Z,686.83
2022-09-07T18:17:06.756Z,688.65
2022-09-07T18:19:36.343Z,682.85
2022-09-07T18:22:05.028Z,689.22
2022-09-07T18:24:36.929Z,678.50
2022-09-07T18:27:05.695Z,688.20
2022-09-07T18:29:34.506Z,691.85
2022-09-07T18:32:05.592Z,682.22
2022-09-07T18:34:35.823Z,679.15
2022-09-07T18:37:03.688Z,681.63
2022-09-07T18:39:32.374Z,673.25
2022-09-07T18:42:01.629Z,680.45
2022-09-07T18:47:28.056Z,685.38
2022-09-07T18:49:57.606Z,693.35
2022-09-07T18:55:13.689Z,683.50
2022-09-07T18:57:42.946Z,693.25
2022-09-07T19:00:13.118Z,705.75
2022-09-07T19:02:42.184Z,684.20
2022-09-07T19:07:59.561Z,688.05
2022-09-07T19:10:27.585Z,697.85
2022-09-07T19:12:56.858Z,691.53
2022-09-07T19:15:24.699Z,692.38
2022-09-07T19:17:52.595Z,684.70
2022-09-07T19:20:20.583Z,681.17
2022-09-07T19:22:49.050Z,682.10
2022-09-07T19:25:17.460Z,689.00
2022-09-07T19:27:45.537Z,687.42
2022-09-07T19:30:17.430Z,688.70
2022-09-07T19:32:45.527Z,687.63
2022-09-07T19:35:13.403Z,682.63
2022-09-07T19:37:41.184Z,686.65
2022-09-07T19:40:12.716Z,682.03
2022-09-07T19:42:44.852Z,683.35
2022-09-07T19:45:15.105Z,677.42
2022-09-07T19:47:42.976Z,675.72
2022-09-07T19:50:11.138Z,685.35
2022-09-07T19:52:39.132Z,674.55
2022-09-07T19:55:08.080Z,676.28
2022-09-07T19:57:35.876Z,668.55
2022-09-07T20:00:04.594Z,669.88
2022-09-07T20:02:34.831Z,642.30
2022-09-07T20:05:02.796Z,652.95
2022-09-07T20:07:30.874Z,678.70
2022-09-07T20:09:58.660Z,641.85
2022-09-07T20:12:26.921Z,642.83
2022-09-07T20:14:54.865Z,631.42
2022-09-07T20:17:22.920Z,625.00
2022-09-07T20:19:52.182Z,616.97
2022-09-07T20:22:20.284Z,612.65
2022-09-07T20:24:48.916Z,635.95
2022-09-07T20:27:16.714Z,653.80
2022-09-07T20:29:44.810Z,674.13
2022-09-07T20:32:13.462Z,663.10
2022-09-07T20:34:41.288Z,668.90
2022-09-07T20:37:10.534Z,666.05
2022-09-07T20:39:39.505Z,670.70
2022-09-07T20:42:07.991Z,658.25
2022-09-07T20:44:35.836Z,658.15
2022-09-07T20:47:03.823Z,660.80
2022-09-07T20:49:32.063Z,662.35
2022-09-07T20:51:59.866Z,673.58
2022-09-07T20:54:29.059Z,665.45
2022-09-07T20:57:00.001Z,657.78
2022-09-07T20:59:29.898Z,659.03
2022-09-07T21:01:58.028Z,670.17
2022-09-07T21:04:27.429Z,661.25
2022-09-07T21:06:55.378Z,665.22
2022-09-07T21:09:23.164Z,672.60
2022-09-07T21:11:56.785Z,671.83
2022-09-07T21:14:25.398Z,671.55
2022-09-07T21:16:53.193Z,672.63
2022-09-07T21:19:21.209Z,677.30
2022-09-07T21:21:49.350Z,684.20
2022-09-07T21:24:19.370Z,665.85
2022-09-07T21:26:48.337Z,666.78
2022-09-07T21:29:20.243Z,667.65
2022-09-07T21:31:48.652Z,674.47
2022-09-07T21:34:17.362Z,682.65
2022-09-07T21:36:45.458Z,672.40
2022-09-07T21:39:14.888Z,676.03
2022-09-07T21:41:43.127Z,672.40
2022-09-07T21:44:12.820Z,661.40
2022-09-07T21:46:43.135Z,674.42
2022-09-07T21:49:11.270Z,672.38
2022-09-07T21:51:39.251Z,673.58
2022-09-07T21:54:07.455Z,681.25
2022-09-07T21:56:35.662Z,675.92
2022-09-07T21:59:04.698Z,683.28
2022-09-07T22:01:32.921Z,674.13
2022-09-07T22:04:04.526Z,674.08
2022-09-07T22:06:33.248Z,679.88
2022-09-07T22:09:01.710Z,672.85
2022-09-07T22:11:30.527Z,672.55
2022-09-07T22:14:00.356Z,669.83
2022-09-07T22:16:28.439Z,661.88
2022-09-07T22:18:56.426Z,667.22
2022-09-07T22:21:27.699Z,668.20
2022-09-07T22:23:57.101Z,663.85
2022-09-07T22:26:26.753Z,668.20
2022-09-07T22:28:54.878Z,670.30
2022-09-07T22:31:24.629Z,673.00
2022-09-07T22:33:54.095Z,673.05
2022-09-07T22:36:23.448Z,677.10
2022-09-07T22:38:55.953Z,676.88
2022-09-07T22:41:26.573Z,667.10
2022-09-07T22:43:54.605Z,675.67
2022-09-07T22:46:24.425Z,670.42
2022-09-07T22:48:54.119Z,670.75
2022-09-07T22:51:23.234Z,677.85
2022-09-07T22:53:52.596Z,676.58
2022-09-07T22:56:22.201Z,673.00
2022-09-07T22:58:52.126Z,676.55
2022-09-07T23:01:20.586Z,673.15
2022-09-07T23:03:48.822Z,678.03
2022-09-07T23:06:24.471Z,680.25
2022-09-07T23:08:54.853Z,681.75
2022-09-07T23:11:25.749Z,676.65
2022-09-07T23:13:53.984Z,681.88
2022-09-07T23:16:22.640Z,688.40
2022-09-07T23:18:50.546Z,681.33
2022-09-07T23:21:18.371Z,667.55
2022-09-07T23:23:50.680Z,673.38
2022-09-07T23:26:20.384Z,670.17
2022-09-07T23:28:52.285Z,688.38
2022-09-07T23:31:20.866Z,686.55
2022-09-07T23:33:49.694Z,691.55
2022-09-07T23:36:19.429Z,681.90
2022-09-07T23:38:47.991Z,664.58
2022-09-07T23:41:18.287Z,681.50
2022-09-07T23:43:48.997Z,673.78
2022-09-07T23:46:18.536Z,678.47
2022-09-07T23:48:48.631Z,670.13
2022-09-07T23:51:22.795Z,671.30
2022-09-07T23:53:51.802Z,673.67
2022-09-07T23:56:19.655Z,664.63
2022-09-07T23:58:48.932Z,671.88
